Time;durP1;ratioP1;P1;durP2;ratioP2;P2;SDS_P1;SDS_P2;PMS_P1;PMS_P2;Temp;Humidity;BMP_temperature;BMP_pressure;BME280_temperature;BME280_humidity;BME280_pressure;Samples;Min_cycle;Max_cycle;Signal;HPM_P1;HPM_P2
2021/08/03 00:01:51;;;;;;;2.80;2.23;;;;;;;;;;5114126;28;20452;-71
2021/08/03 00:04:20;;;;;;;3.47;2.57;;;;;;;;;;5097809;28;20534;-70
2021/08/03 00:06:47;;;;;;;7.00;2.83;;;;;;;;;;5091122;28;20476;-71
2021/08/03 00:09:13;;;;;;;2.57;2.03;;;;;;;;;;5099791;28;20422;-70
2021/08/03 00:11:43;;;;;;;2.60;2.30;;;;;;;;;;5096066;28;20483;-69
2021/08/03 00:14:09;;;;;;;2.90;2.17;;;;;;;;;;5095915;28;20440;-74
2021/08/03 00:16:36;;;;;;;3.80;2.40;;;;;;;;;;5094630;28;20423;-70
2021/08/03 00:19:02;;;;;;;3.23;2.20;;;;;;;;;;5095766;28;20424;-73
2021/08/03 00:21:29;;;;;;;4.60;2.30;;;;;;;;;;5095601;28;20420;-71
2021/08/03 00:23:55;;;;;;;3.10;2.40;;;;;;;;;;5095449;28;20838;-73
2021/08/03 00:26:21;;;;;;;2.93;2.07;;;;;;;;;;5095629;28;20430;-69
2021/08/03 00:28:49;;;;;;;4.03;2.40;;;;;;;;;;5087856;28;20415;-72
2021/08/03 00:31:22;;;;;;;4.27;2.00;;;;;;;;;;5074883;28;20469;-71
2021/08/03 00:33:49;;;;;;;3.60;2.10;;;;;;;;;;5075007;28;20433;-74
2021/08/03 00:36:16;;;;;;;3.23;2.20;;;;;;;;;;5075018;28;20726;-74
2021/08/03 00:38:42;;;;;;;2.40;2.00;;;;;;;;;;5074591;28;20775;-71
2021/08/03 00:41:20;;;;;;;3.50;2.50;;;;;;;;;;5074985;28;20407;-72
2021/08/03 00:43:46;;;;;;;3.70;2.77;;;;;;;;;;5074652;28;20443;-72
2021/08/03 00:46:12;;;;;;;4.30;2.70;;;;;;;;;;5074875;28;20428;-74
2021/08/03 00:48:38;;;;;;;2.93;2.50;;;;;;;;;;5072918;28;20429;-73
2021/08/03 00:51:04;;;;;;;5.40;2.60;;;;;;;;;;5074627;28;20807;-70
2021/08/03 00:53:33;;;;;;;3.10;2.10;;;;;;;;;;5080925;28;20465;-71
2021/08/03 00:56:00;;;;;;;2.90;2.40;;;;;;;;;;5085327;28;20921;-73
2021/08/03 00:58:26;;;;;;;4.37;2.30;;;;;;;;;;5074090;28;20424;-71
2021/08/03 01:00:58;;;;;;;3.17;2.70;;;;;;;;;;5074411;28;20776;-73
2021/08/03 01:03:24;;;;;;;5.37;2.53;;;;;;;;;;5082313;28;21021;-71
2021/08/03 01:05:54;;;;;;;4.13;2.90;;;;;;;;;;5094353;28;20895;-73
2021/08/03 01:08:41;;;;;;;3.53;2.57;;;;;;;;;;5094254;28;20514;-71
2021/08/03 01:11:10;;;;;;;2.87;2.53;;;;;;;;;;5094749;28;20460;-74
2021/08/03 01:13:55;;;;;;;3.07;2.30;;;;;;;;;;5094247;28;20462;-71
2021/08/03 01:16:29;;;;;;;7.77;3.00;;;;;;;;;;5092999;28;20983;-75
2021/08/03 01:19:16;;;;;;;6.13;2.67;;;;;;;;;;5093929;28;20411;-69
2021/08/03 01:21:49;;;;;;;3.53;2.30;;;;;;;;;;5090572;28;20478;-72
2021/08/03 01:24:25;;;;;;;5.07;3.33;;;;;;;;;;5094483;28;20436;-69
2021/08/03 01:27:06;;;;;;;3.10;2.70;;;;;;;;;;5093744;28;20413;-69
2021/08/03 01:29:32;;;;;;;6.30;3.13;;;;;;;;;;5081271;28;20426;-70
2021/08/03 01:32:03;;;;;;;7.43;2.83;;;;;;;;;;5073907;28;21205;-71
2021/08/03 01:34:29;;;;;;;4.20;3.40;;;;;;;;;;5073903;28;20477;-73
2021/08/03 01:36:56;;;;;;;5.63;3.20;;;;;;;;;;5073292;28;20489;-70
2021/08/03 01:39:25;;;;;;;5.90;3.03;;;;;;;;;;5073489;28;20503;-72
2021/08/03 01:41:52;;;;;;;3.60;2.53;;;;;;;;;;5073287;28;20457;-72
2021/08/03 01:44:19;;;;;;;4.70;3.00;;;;;;;;;;5084713;28;20434;-71
2021/08/03 01:46:45;;;;;;;3.83;3.27;;;;;;;;;;5093430;28;20432;-71
2021/08/03 01:49:13;;;;;;;4.23;3.07;;;;;;;;;;5093588;28;20767;-71
2021/08/03 01:51:41;;;;;;;6.07;3.70;;;;;;;;;;5093556;28;20957;-74
2021/08/03 01:54:08;;;;;;;5.37;3.57;;;;;;;;;;5093410;28;20480;-72
2021/08/03 01:56:35;;;;;;;6.30;3.60;;;;;;;;;;5076959;28;20468;-71
2021/08/03 01:59:02;;;;;;;4.07;3.33;;;;;;;;;;5073302;28;20411;-74
2021/08/03 02:01:29;;;;;;;4.70;3.47;;;;;;;;;;5073307;28;20422;-70
2021/08/03 02:03:55;;;;;;;4.23;3.70;;;;;;;;;;5085481;28;20430;-73
2021/08/03 02:06:24;;;;;;;4.47;3.33;;;;;;;;;;5093254;28;20771;-74
2021/08/03 02:08:50;;;;;;;5.70;3.53;;;;;;;;;;5093321;28;20411;-74
2021/08/03 02:11:17;;;;;;;3.90;3.33;;;;;;;;;;5093230;28;20590;-72
2021/08/03 02:13:45;;;;;;;7.10;3.90;;;;;;;;;;5093808;28;20435;-74
2021/08/03 02:16:11;;;;;;;3.70;3.40;;;;;;;;;;5093424;28;20410;-73
2021/08/03 02:18:37;;;;;;;4.27;3.23;;;;;;;;;;5093160;28;20884;-73
2021/08/03 02:21:03;;;;;;;5.70;4.20;;;;;;;;;;5093114;28;20434;-74
2021/08/03 02:23:29;;;;;;;4.10;3.70;;;;;;;;;;5093631;28;20434;-71
2021/08/03 02:25:55;;;;;;;4.57;4.07;;;;;;;;;;5093238;28;20442;-73
2021/08/03 02:28:21;;;;;;;4.53;3.50;;;;;;;;;;5090182;28;20442;-71
2021/08/03 02:30:50;;;;;;;4.37;3.20;;;;;;;;;;5072851;28;20463;-72
2021/08/03 02:33:22;;;;;;;4.50;3.40;;;;;;;;;;5073091;28;20485;-74
2021/08/03 02:35:53;;;;;;;5.13;3.50;;;;;;;;;;5073220;28;20498;-72
2021/08/03 02:38:22;;;;;;;5.83;3.90;;;;;;;;;;5072428;28;20414;-75
2021/08/03 02:40:48;;;;;;;5.57;4.00;;;;;;;;;;5075670;28;20751;-72
2021/08/03 02:43:15;;;;;;;5.57;3.57;;;;;;;;;;5077183;28;20939;-69
2021/08/03 02:45:41;;;;;;;5.23;3.50;;;;;;;;;;5077134;28;20414;-70
2021/08/03 02:48:12;;;;;;;4.97;3.90;;;;;;;;;;5076551;28;20408;-71
2021/08/03 02:50:40;;;;;;;5.07;3.67;;;;;;;;;;5077199;28;20501;-73
2021/08/03 02:53:13;;;;;;;4.40;3.53;;;;;;;;;;5076859;28;20441;-72
2021/08/03 02:55:46;;;;;;;4.80;3.67;;;;;;;;;;5076833;28;20409;-72
2021/08/03 02:58:15;;;;;;;5.43;3.80;;;;;;;;;;5075039;28;20444;-73
2021/08/03 03:00:41;;;;;;;5.17;3.50;;;;;;;;;;5076683;28;20417;-74
2021/08/03 03:03:09;;;;;;;4.47;3.57;;;;;;;;;;5076702;28;20494;-73
2021/08/03 03:05:36;;;;;;;5.33;3.73;;;;;;;;;;5076577;28;20936;-72
2021/08/03 03:08:06;;;;;;;5.60;3.67;;;;;;;;;;5076515;28;20445;-68
2021/08/03 03:10:34;;;;;;;4.00;3.60;;;;;;;;;;5076450;28;20415;-70
2021/08/03 03:13:05;;;;;;;5.20;3.50;;;;;;;;;;5076895;28;20803;-71
2021/08/03 03:15:31;;;;;;;5.23;4.60;;;;;;;;;;5076570;28;20495;-72
2021/08/03 03:17:58;;;;;;;6.20;3.80;;;;;;;;;;5076465;28;20412;-71
2021/08/03 03:20:24;;;;;;;5.20;3.70;;;;;;;;;;5076358;28;20446;-71
2021/08/03 03:22:50;;;;;;;4.53;3.70;;;;;;;;;;5076436;28;20527;-71
2021/08/03 03:25:22;;;;;;;4.73;3.97;;;;;;;;;;5076149;28;20407;-74
2021/08/03 03:27:49;;;;;;;5.00;3.40;;;;;;;;;;5084146;28;20435;-73
2021/08/03 03:30:16;;;;;;;4.20;3.47;;;;;;;;;;5077663;28;20404;-73
2021/08/03 03:32:43;;;;;;;4.50;3.97;;;;;;;;;;5076069;28;20825;-74
2021/08/03 03:35:10;;;;;;;6.37;4.00;;;;;;;;;;5076284;28;20729;-71
2021/08/03 03:37:36;;;;;;;4.80;3.70;;;;;;;;;;5076058;28;20780;-72
2021/08/03 03:40:03;;;;;;;5.03;3.67;;;;;;;;;;5075894;28;20409;-73
2021/08/03 03:42:30;;;;;;;8.70;3.63;;;;;;;;;;5076072;28;20415;-72
2021/08/03 03:44:57;;;;;;;5.13;3.50;;;;;;;;;;5075757;28;20412;-74
2021/08/03 03:47:30;;;;;;;3.60;2.63;;;;;;;;;;5075441;28;20407;-71
2021/08/03 03:50:02;;;;;;;4.00;3.50;;;;;;;;;;5075729;28;20405;-71
2021/08/03 03:52:33;;;;;;;5.70;3.57;;;;;;;;;;5074347;28;20882;-72
2021/08/03 03:55:00;;;;;;;3.60;3.07;;;;;;;;;;5075448;28;20492;-72
2021/08/03 03:57:26;;;;;;;6.53;3.73;;;;;;;;;;5075072;28;20445;-71
2021/08/03 03:59:54;;;;;;;4.63;3.63;;;;;;;;;;5075933;28;20873;-73
2021/08/03 04:02:21;;;;;;;4.63;3.80;;;;;;;;;;5075345;28;20454;-74
2021/08/03 04:04:47;;;;;;;4.50;3.73;;;;;;;;;;5094908;28;20435;-71
2021/08/03 04:07:13;;;;;;;5.00;4.07;;;;;;;;;;5095205;28;20409;-74
2021/08/03 04:09:41;;;;;;;5.40;4.07;;;;;;;;;;5095970;28;20430;-74
2021/08/03 04:12:07;;;;;;;4.53;3.33;;;;;;;;;;5095471;28;20497;-72
2021/08/03 04:14:34;;;;;;;4.87;4.07;;;;;;;;;;5095632;28;20426;-71
2021/08/03 04:17:00;;;;;;;5.30;3.67;;;;;;;;;;5094994;28;20470;-74
2021/08/03 04:19:26;;;;;;;4.90;3.23;;;;;;;;;;5095776;28;20494;-73
2021/08/03 04:21:52;;;;;;;4.50;2.97;;;;;;;;;;5095347;28;20475;-73
2021/08/03 04:24:19;;;;;;;4.50;2.50;;;;;;;;;;5095457;28;20446;-74
2021/08/03 04:26:46;;;;;;;3.47;2.50;;;;;;;;;;5094891;28;20409;-70
2021/08/03 04:29:12;;;;;;;3.93;2.63;;;;;;;;;;5085349;28;20470;-73
2021/08/03 04:31:38;;;;;;;3.13;2.70;;;;;;;;;;5074870;28;20853;-73
2021/08/03 04:34:04;;;;;;;3.57;2.43;;;;;;;;;;5074903;28;20447;-72
2021/08/03 04:36:30;;;;;;;3.33;2.70;;;;;;;;;;5074967;28;20444;-70
2021/08/03 04:38:56;;;;;;;4.33;3.17;;;;;;;;;;5074738;28;20480;-71
2021/08/03 04:41:23;;;;;;;3.97;3.10;;;;;;;;;;5074666;28;20493;-72
2021/08/03 04:43:49;;;;;;;4.27;2.80;;;;;;;;;;5074904;28;20566;-73
2021/08/03 04:46:15;;;;;;;3.00;2.70;;;;;;;;;;5074574;28;20446;-69
2021/08/03 04:48:41;;;;;;;3.07;2.73;;;;;;;;;;5074118;28;20440;-71
2021/08/03 04:51:07;;;;;;;4.53;2.30;;;;;;;;;;5074541;28;20475;-71
2021/08/03 04:53:34;;;;;;;2.80;2.50;;;;;;;;;;5080478;28;20441;-71
2021/08/03 04:56:00;;;;;;;6.50;2.80;;;;;;;;;;5082766;28;20416;-72
2021/08/03 04:58:26;;;;;;;3.10;2.53;;;;;;;;;;5074215;28;20418;-72
2021/08/03 05:00:52;;;;;;;5.63;3.23;;;;;;;;;;5074463;28;20427;-73
2021/08/03 05:03:19;;;;;;;3.10;2.80;;;;;;;;;;5080721;28;20988;-72
2021/08/03 05:05:45;;;;;;;3.00;2.70;;;;;;;;;;5094513;28;20433;-72
2021/08/03 05:08:11;;;;;;;3.60;3.30;;;;;;;;;;5060763;28;20409;-73
2021/08/03 05:10:38;;;;;;;4.30;3.17;;;;;;;;;;5074589;28;20725;-76
2021/08/03 05:13:04;;;;;;;4.20;3.80;;;;;;;;;;5073956;28;20434;-71
2021/08/03 05:15:30;;;;;;;5.13;3.67;;;;;;;;;;5074255;28;20410;-71
2021/08/03 05:17:56;;;;;;;4.30;3.90;;;;;;;;;;5073740;28;20404;-71
2021/08/03 05:20:22;;;;;;;3.70;3.40;;;;;;;;;;5073934;28;20411;-71
2021/08/03 05:22:49;;;;;;;4.30;3.90;;;;;;;;;;5073852;28;20435;-73
2021/08/03 05:25:15;;;;;;;7.47;3.60;;;;;;;;;;5074397;28;20740;-72
2021/08/03 05:27:41;;;;;;;5.20;2.97;;;;;;;;;;5073339;28;20494;-69
2021/08/03 05:30:07;;;;;;;5.67;3.70;;;;;;;;;;5073920;28;20823;-72
2021/08/03 05:32:34;;;;;;;5.13;3.23;;;;;;;;;;5072952;28;20466;-70
2021/08/03 05:35:00;;;;;;;3.87;3.40;;;;;;;;;;5073274;28;20789;-71
2021/08/03 05:37:26;;;;;;;3.47;2.97;;;;;;;;;;5073376;28;20408;-71
2021/08/03 05:39:53;;;;;;;3.80;3.50;;;;;;;;;;5073686;28;20923;-72
2021/08/03 05:42:19;;;;;;;8.00;6.50;;;;;;;;;;5073318;28;20416;-70
2021/08/03 05:44:45;;;;;;;4.10;3.70;;;;;;;;;;5074209;28;20420;-72
2021/08/03 05:47:11;;;;;;;3.80;3.23;;;;;;;;;;5073105;28;20420;-71
2021/08/03 05:49:37;;;;;;;4.03;3.00;;;;;;;;;;5073415;28;20442;-72
2021/08/03 05:52:03;;;;;;;3.43;2.57;;;;;;;;;;5073515;28;20513;-71
2021/08/03 05:54:29;;;;;;;3.50;3.00;;;;;;;;;;5087796;28;20431;-71
2021/08/03 05:56:55;;;;;;;4.40;3.20;;;;;;;;;;5073383;28;20417;-69
2021/08/03 05:59:21;;;;;;;3.50;3.07;;;;;;;;;;5073384;28;20532;-73
2021/08/03 06:01:47;;;;;;;3.57;3.27;;;;;;;;;;5073285;28;20507;-71
2021/08/03 06:04:14;;;;;;;3.40;3.10;;;;;;;;;;5073026;28;20539;-71
2021/08/03 06:06:41;;;;;;;3.40;3.10;;;;;;;;;;5072903;28;20464;-71
2021/08/03 06:09:14;;;;;;;4.90;3.73;;;;;;;;;;5073291;28;20418;-71
2021/08/03 06:11:50;;;;;;;3.13;2.80;;;;;;;;;;5073623;28;20555;-73
2021/08/03 06:14:26;;;;;;;3.77;3.43;;;;;;;;;;5072673;28;20447;-72
2021/08/03 06:16:53;;;;;;;7.00;3.37;;;;;;;;;;5073067;28;20416;-73
2021/08/03 06:19:19;;;;;;;4.60;3.50;;;;;;;;;;5073200;28;20405;-69
2021/08/03 06:21:46;;;;;;;3.93;3.40;;;;;;;;;;5073437;28;20421;-71
2021/08/03 06:24:15;;;;;;;4.37;3.97;;;;;;;;;;5073204;28;20433;-68
2021/08/03 06:26:43;;;;;;;4.23;3.27;;;;;;;;;;5073153;28;20783;-74
2021/08/03 06:29:09;;;;;;;4.30;3.40;;;;;;;;;;5073016;28;20410;-74
2021/08/03 06:31:35;;;;;;;5.03;4.00;;;;;;;;;;5073191;28;20466;-70
2021/08/03 06:34:02;;;;;;;5.17;3.90;;;;;;;;;;5072623;28;20830;-71
2021/08/03 06:36:28;;;;;;;4.00;3.60;;;;;;;;;;5073191;28;20507;-72
2021/08/03 06:38:54;;;;;;;4.63;3.93;;;;;;;;;;5072607;28;20416;-70
2021/08/03 06:41:26;;;;;;;6.30;3.53;;;;;;;;;;5073168;28;20414;-73
2021/08/03 06:43:56;;;;;;;4.50;3.70;;;;;;;;;;5079445;28;20447;-73
2021/08/03 06:46:22;;;;;;;4.83;3.80;;;;;;;;;;5093103;28;20418;-71
2021/08/03 06:49:07;;;;;;;7.50;4.33;;;;;;;;;;5092881;28;20459;-71
2021/08/03 06:51:35;;;;;;;6.17;4.07;;;;;;;;;;5092913;28;20468;-72
2021/08/03 06:54:03;;;;;;;4.40;3.33;;;;;;;;;;5082790;28;20433;-72
2021/08/03 06:56:32;;;;;;;4.73;4.23;;;;;;;;;;5072417;28;20471;-71
2021/08/03 06:59:03;;;;;;;4.13;3.50;;;;;;;;;;5072592;28;20840;-71
2021/08/03 07:01:46;;;;;;;5.33;3.50;;;;;;;;;;5073079;28;20436;-70
2021/08/03 07:04:13;;;;;;;3.77;3.47;;;;;;;;;;5072228;28;20454;-72
2021/08/03 07:06:43;;;;;;;4.57;3.30;;;;;;;;;;5072411;28;20416;-70
2021/08/03 07:09:10;;;;;;;5.43;4.80;;;;;;;;;;5071216;28;20422;-70
2021/08/03 07:11:36;;;;;;;5.60;4.03;;;;;;;;;;5072713;28;20860;-70
2021/08/03 07:14:02;;;;;;;4.30;3.50;;;;;;;;;;5072814;28;20431;-73
2021/08/03 07:16:28;;;;;;;4.50;3.00;;;;;;;;;;5072560;28;20419;-72
2021/08/03 07:18:55;;;;;;;3.80;3.40;;;;;;;;;;5071955;28;20406;-70
2021/08/03 07:21:23;;;;;;;3.60;2.50;;;;;;;;;;5072506;28;20414;-74
2021/08/03 07:23:50;;;;;;;3.50;2.73;;;;;;;;;;5072535;28;20517;-71
2021/08/03 07:26:17;;;;;;;5.40;2.60;;;;;;;;;;5073783;28;20437;-71
2021/08/03 07:28:43;;;;;;;3.70;2.10;;;;;;;;;;5075494;28;20421;-71
2021/08/03 07:31:11;;;;;;;2.50;1.83;;;;;;;;;;5076150;28;20457;-71
2021/08/03 07:33:39;;;;;;;4.43;2.00;;;;;;;;;;5076447;28;20809;-70
2021/08/03 07:36:05;;;;;;;2.37;1.80;;;;;;;;;;5076238;28;20414;-71
2021/08/03 07:38:31;;;;;;;2.53;1.60;;;;;;;;;;5075458;28;20418;-72
2021/08/03 07:40:57;;;;;;;4.10;1.70;;;;;;;;;;5076012;28;20418;-73
2021/08/03 07:43:23;;;;;;;2.20;1.60;;;;;;;;;;5075968;28;20426;-72
2021/08/03 07:45:49;;;;;;;3.43;1.60;;;;;;;;;;5075918;28;20771;-72
2021/08/03 07:48:15;;;;;;;2.73;1.63;;;;;;;;;;5075585;28;20419;-72
2021/08/03 07:50:41;;;;;;;2.37;1.73;;;;;;;;;;5075977;28;20763;-72
2021/08/03 07:53:08;;;;;;;2.43;1.80;;;;;;;;;;5075522;28;20435;-70
2021/08/03 07:55:34;;;;;;;2.87;1.77;;;;;;;;;;5075885;28;20411;-71
2021/08/03 07:58:00;;;;;;;2.60;1.40;;;;;;;;;;5075361;28;20544;-70
2021/08/03 08:00:26;;;;;;;1.80;1.20;;;;;;;;;;5075661;28;20419;-72
2021/08/03 08:02:52;;;;;;;1.90;1.30;;;;;;;;;;5075263;28;20850;-72
2021/08/03 08:05:19;;;;;;;2.60;1.40;;;;;;;;;;5075315;28;20517;-71
2021/08/03 08:07:45;;;;;;;2.37;1.40;;;;;;;;;;5075053;28;20419;-71
2021/08/03 08:10:11;;;;;;;2.90;1.40;;;;;;;;;;5075327;28;20414;-73
2021/08/03 08:12:37;;;;;;;3.20;1.23;;;;;;;;;;5075130;28;20458;-70
2021/08/03 08:15:03;;;;;;;2.30;1.30;;;;;;;;;;5075240;28;20472;-73
2021/08/03 08:17:29;;;;;;;1.90;1.43;;;;;;;;;;5075066;28;20899;-73
2021/08/03 08:19:55;;;;;;;2.20;1.60;;;;;;;;;;5075214;28;20414;-74
2021/08/03 08:22:21;;;;;;;2.20;1.77;;;;;;;;;;5075366;28;20815;-73
2021/08/03 08:24:48;;;;;;;2.00;1.50;;;;;;;;;;5075013;28;20423;-71
2021/08/03 08:27:14;;;;;;;2.40;1.40;;;;;;;;;;5074574;28;20769;-70
2021/08/03 08:29:41;;;;;;;2.10;1.40;;;;;;;;;;5075026;28;20446;-73
2021/08/03 08:32:07;;;;;;;2.23;1.40;;;;;;;;;;5074991;28;20468;-73
2021/08/03 08:34:33;;;;;;;2.00;1.27;;;;;;;;;;5074961;28;20427;-72
2021/08/03 08:36:59;;;;;;;2.87;1.43;;;;;;;;;;5074707;28;20421;-72
2021/08/03 08:39:25;;;;;;;1.90;1.20;;;;;;;;;;5074339;28;20496;-73
2021/08/03 08:41:51;;;;;;;3.27;1.50;;;;;;;;;;5075098;28;20418;-71
2021/08/03 08:44:20;;;;;;;5.30;1.40;;;;;;;;;;5074660;28;20466;-72
2021/08/03 08:46:46;;;;;;;2.30;1.70;;;;;;;;;;5074387;28;20413;-72
2021/08/03 08:49:14;;;;;;;2.30;1.57;;;;;;;;;;5074503;28;20417;-70
2021/08/03 08:51:41;;;;;;;2.10;1.40;;;;;;;;;;5074664;28;20788;-73
2021/08/03 08:54:07;;;;;;;2.00;1.57;;;;;;;;;;5074473;28;20521;-71
2021/08/03 08:56:33;;;;;;;4.47;1.57;;;;;;;;;;5074298;28;20421;-72
2021/08/03 08:58:59;;;;;;;2.50;1.50;;;;;;;;;;5074698;28;20407;-72
2021/08/03 09:01:25;;;;;;;1.90;1.30;;;;;;;;;;5074268;28;20413;-73
2021/08/03 09:03:52;;;;;;;2.20;1.67;;;;;;;;;;5086056;28;20948;-73
2021/08/03 09:06:21;;;;;;;1.90;1.20;;;;;;;;;;5094764;28;20422;-73
2021/08/03 09:08:49;;;;;;;2.00;1.37;;;;;;;;;;5094179;28;20417;-71
2021/08/03 09:11:16;;;;;;;2.50;1.50;;;;;;;;;;5094211;28;20481;-72
2021/08/03 09:13:54;;;;;;;2.50;1.40;;;;;;;;;;5094323;28;20512;-74
2021/08/03 09:16:21;;;;;;;2.80;1.50;;;;;;;;;;5093185;28;20547;-71
2021/08/03 09:18:48;;;;;;;2.20;1.40;;;;;;;;;;5093903;28;20412;-71
2021/08/03 09:21:32;;;;;;;3.30;1.63;;;;;;;;;;5094560;28;20444;-74
2021/08/03 09:24:00;;;;;;;2.07;1.20;;;;;;;;;;5094086;28;20428;-71
2021/08/03 09:26:40;;;;;;;1.80;1.30;;;;;;;;;;5094650;28;20409;-71
2021/08/03 09:29:07;;;;;;;2.13;1.30;;;;;;;;;;5085101;28;20429;-72
2021/08/03 09:31:34;;;;;;;2.57;1.17;;;;;;;;;;5073859;28;21011;-71
2021/08/03 09:34:00;;;;;;;3.07;1.40;;;;;;;;;;5073737;28;20471;-70
2021/08/03 09:36:45;;;;;;;2.43;1.27;;;;;;;;;;5073979;28;20793;-73
2021/08/03 09:39:31;;;;;;;2.30;1.43;;;;;;;;;;5074155;28;20406;-71
2021/08/03 09:41:57;;;;;;;1.80;1.20;;;;;;;;;;5054880;28;20453;-73
2021/08/03 09:44:23;;;;;;;1.80;1.30;;;;;;;;;;5073675;28;20450;-73
2021/08/03 09:46:56;;;;;;;2.20;1.47;;;;;;;;;;5073209;28;20873;-74
2021/08/03 09:49:32;;;;;;;1.90;1.20;;;;;;;;;;5072870;28;20411;-72
2021/08/03 09:52:06;;;;;;;1.87;1.20;;;;;;;;;;5073588;28;20504;-72
2021/08/03 09:54:32;;;;;;;1.90;1.40;;;;;;;;;;5073548;28;20533;-71
2021/08/03 09:56:58;;;;;;;2.57;1.30;;;;;;;;;;5073022;28;20414;-72
2021/08/03 09:59:35;;;;;;;2.23;1.30;;;;;;;;;;5073298;28;20883;-73
2021/08/03 10:02:01;;;;;;;1.83;1.10;;;;;;;;;;5073627;28;20422;-74
2021/08/03 10:04:28;;;;;;;1.70;1.00;;;;;;;;;;5090072;28;20460;-73
2021/08/03 10:06:55;;;;;;;2.93;1.27;;;;;;;;;;5093052;28;20463;-72
2021/08/03 10:09:21;;;;;;;2.00;1.10;;;;;;;;;;5093392;28;20417;-72
2021/08/03 10:11:48;;;;;;;1.70;1.20;;;;;;;;;;5093079;28;20853;-73
2021/08/03 10:14:15;;;;;;;2.13;1.50;;;;;;;;;;5093293;28;20441;-71
2021/08/03 10:16:41;;;;;;;1.80;1.10;;;;;;;;;;5093014;28;20410;-74
2021/08/03 10:19:07;;;;;;;1.80;1.10;;;;;;;;;;5093440;28;20542;-71
2021/08/03 10:21:36;;;;;;;1.90;1.30;;;;;;;;;;5093579;28;20433;-72
2021/08/03 10:24:09;;;;;;;2.20;1.33;;;;;;;;;;5088199;28;20969;-70
2021/08/03 10:26:36;;;;;;;2.17;1.20;;;;;;;;;;5072642;28;20929;-71
2021/08/03 10:29:20;;;;;;;2.00;1.40;;;;;;;;;;5073421;28;20874;-73
2021/08/03 10:31:46;;;;;;;2.13;1.20;;;;;;;;;;5073227;28;20560;-73
2021/08/03 10:34:32;;;;;;;2.30;1.30;;;;;;;;;;5073000;28;20433;-72
2021/08/03 10:36:58;;;;;;;2.07;1.30;;;;;;;;;;5072719;28;20489;-72
2021/08/03 10:39:25;;;;;;;2.20;1.30;;;;;;;;;;5073218;28;20426;-71
2021/08/03 10:42:00;;;;;;;3.23;1.90;;;;;;;;;;5073153;28;20429;-71
2021/08/03 10:44:45;;;;;;;1.90;1.20;;;;;;;;;;5073133;28;20832;-71
2021/08/03 10:47:42;;;;;;;2.00;1.50;;;;;;;;;;5072761;28;20436;-71
2021/08/03 10:50:09;;;;;;;1.80;1.23;;;;;;;;;;5072793;28;20411;-73
2021/08/03 10:52:56;;;;;;;1.97;1.27;;;;;;;;;;5072600;28;20970;-70
2021/08/03 10:55:35;;;;;;;2.00;1.30;;;;;;;;;;5072591;28;20472;-71
2021/08/03 10:58:10;;;;;;;2.90;1.40;;;;;;;;;;5072835;28;20425;-72
2021/08/03 11:00:42;;;;;;;2.00;1.13;;;;;;;;;;5072751;28;20467;-72
2021/08/03 11:03:27;;;;;;;1.80;1.13;;;;;;;;;;5082365;28;20461;-69
2021/08/03 11:05:53;;;;;;;2.00;1.10;;;;;;;;;;5096534;28;20515;-72
2021/08/03 11:08:29;;;;;;;1.90;1.20;;;;;;;;;;5096416;28;20492;-75
2021/08/03 11:11:05;;;;;;;1.80;1.20;;;;;;;;;;5095224;28;20424;-69
2021/08/03 11:13:38;;;;;;;2.40;1.30;;;;;;;;;;5096876;28;20444;-72
2021/08/03 11:16:05;;;;;;;1.70;1.10;;;;;;;;;;5096720;28;20405;-69
2021/08/03 11:18:41;;;;;;;1.80;1.10;;;;;;;;;;5096426;28;20410;-70
2021/08/03 11:21:07;;;;;;;2.03;1.10;;;;;;;;;;5095457;28;20409;-70
2021/08/03 11:23:52;;;;;;;2.50;1.10;;;;;;;;;;5096399;28;20425;-72
2021/08/03 11:26:19;;;;;;;2.00;1.00;;;;;;;;;;5096463;28;20459;-71
2021/08/03 11:28:59;;;;;;;1.90;1.30;;;;;;;;;;5089927;28;20415;-72
2021/08/03 11:31:38;;;;;;;1.70;1.13;;;;;;;;;;5076473;28;20582;-71
2021/08/03 11:34:04;;;;;;;1.80;1.20;;;;;;;;;;5076238;28;20830;-71
2021/08/03 11:36:31;;;;;;;1.83;1.10;;;;;;;;;;5075881;28;20437;-72
2021/08/03 11:38:57;;;;;;;2.10;1.40;;;;;;;;;;5076041;28;20468;-69
2021/08/03 11:41:23;;;;;;;1.90;1.30;;;;;;;;;;5075857;28;20813;-73
2021/08/03 11:43:49;;;;;;;2.27;1.30;;;;;;;;;;5076065;28;20433;-72
2021/08/03 11:46:25;;;;;;;7.30;1.47;;;;;;;;;;5075791;28;20938;-69
2021/08/03 11:49:01;;;;;;;1.90;1.20;;;;;;;;;;5075594;28;20448;-72
2021/08/03 11:51:34;;;;;;;2.60;1.30;;;;;;;;;;5076111;28;20932;-72
2021/08/03 11:54:16;;;;;;;2.40;1.50;;;;;;;;;;5075922;28;20466;-69
2021/08/03 11:56:42;;;;;;;2.43;1.50;;;;;;;;;;5075140;28;20760;-72
2021/08/03 11:59:11;;;;;;;3.50;1.70;;;;;;;;;;5075675;28;20493;-70
2021/08/03 12:01:53;;;;;;;3.10;1.70;;;;;;;;;;5075631;28;20402;-73
2021/08/03 12:04:23;;;;;;;2.63;1.50;;;;;;;;;;5091077;28;20499;-73
2021/08/03 12:06:50;;;;;;;2.33;1.70;;;;;;;;;;5095554;28;20742;-71
2021/08/03 12:09:17;;;;;;;3.87;1.83;;;;;;;;;;5096005;28;20464;-73
2021/08/03 12:11:45;;;;;;;2.20;1.70;;;;;;;;;;5095536;28;20453;-73
2021/08/03 12:14:15;;;;;;;2.70;1.50;;;;;;;;;;5093350;28;20472;-71
2021/08/03 12:16:45;;;;;;;2.00;1.60;;;;;;;;;;5095010;28;20476;-70
2021/08/03 12:19:29;;;;;;;2.70;1.93;;;;;;;;;;5095640;28;20416;-70
2021/08/03 12:21:55;;;;;;;2.60;1.57;;;;;;;;;;5095367;28;20405;-71
2021/08/03 12:24:21;;;;;;;2.50;1.70;;;;;;;;;;5095526;28;20495;-75
2021/08/03 12:26:47;;;;;;;3.23;1.50;;;;;;;;;;5094967;28;20421;-73
2021/08/03 12:29:13;;;;;;;2.40;1.70;;;;;;;;;;5085489;28;20452;-72
2021/08/03 12:31:43;;;;;;;2.90;1.70;;;;;;;;;;5075454;28;20505;-74
2021/08/03 12:34:11;;;;;;;2.33;1.60;;;;;;;;;;5074956;28;20432;-71
2021/08/03 12:36:56;;;;;;;3.07;1.90;;;;;;;;;;5074693;28;20762;-71
2021/08/03 12:39:24;;;;;;;2.20;1.70;;;;;;;;;;5075079;28;20435;-73
2021/08/03 12:42:11;;;;;;;2.10;1.60;;;;;;;;;;5074749;28;20418;-71
2021/08/03 12:44:39;;;;;;;3.17;1.53;;;;;;;;;;5074936;28;20438;-71
2021/08/03 12:47:12;;;;;;;3.30;1.87;;;;;;;;;;5074307;28;20414;-72
2021/08/03 12:49:39;;;;;;;3.03;1.60;;;;;;;;;;5074831;28;20532;-72
2021/08/03 12:52:16;;;;;;;2.10;1.30;;;;;;;;;;5074730;28;20515;-75
2021/08/03 12:54:44;;;;;;;2.10;1.77;;;;;;;;;;5091568;28;20443;-71
2021/08/03 12:57:12;;;;;;;2.40;1.43;;;;;;;;;;5073181;28;20505;-73
2021/08/03 12:59:39;;;;;;;2.27;1.67;;;;;;;;;;5074670;28;20417;-73
2021/08/03 13:02:06;;;;;;;2.40;1.43;;;;;;;;;;5074819;28;20768;-72
2021/08/03 13:04:32;;;;;;;2.10;1.60;;;;;;;;;;5074112;28;20780;-74
2021/08/03 13:07:02;;;;;;;3.70;1.70;;;;;;;;;;5073970;28;20479;-71
2021/08/03 13:09:29;;;;;;;2.47;1.47;;;;;;;;;;5074140;28;20433;-73
2021/08/03 13:11:56;;;;;;;2.60;1.60;;;;;;;;;;5074190;28;20994;-73
2021/08/03 13:14:22;;;;;;;2.20;1.50;;;;;;;;;;5074765;28;20431;-72
2021/08/03 13:16:48;;;;;;;2.10;1.60;;;;;;;;;;5073819;28;20755;-72
2021/08/03 13:19:14;;;;;;;2.43;1.60;;;;;;;;;;5073973;28;20864;-74
2021/08/03 13:21:40;;;;;;;2.63;1.50;;;;;;;;;;5074031;28;20410;-72
2021/08/03 13:24:06;;;;;;;4.53;1.80;;;;;;;;;;5073797;28;20453;-73
2021/08/03 13:26:32;;;;;;;2.10;1.50;;;;;;;;;;5073883;28;20752;-70
2021/08/03 13:28:59;;;;;;;2.20;1.37;;;;;;;;;;5073844;28;20468;-73
2021/08/03 13:31:25;;;;;;;2.53;1.50;;;;;;;;;;5073640;28;20462;-74
2021/08/03 13:33:51;;;;;;;2.07;1.40;;;;;;;;;;5073572;28;21016;-74
2021/08/03 13:36:17;;;;;;;3.90;2.93;;;;;;;;;;5074088;28;20531;-72
2021/08/03 13:38:43;;;;;;;2.23;1.60;;;;;;;;;;5073397;28;20833;-71
2021/08/03 13:41:09;;;;;;;3.30;2.40;;;;;;;;;;5073824;28;20415;-72
2021/08/03 13:43:35;;;;;;;2.40;1.90;;;;;;;;;;5073621;28;20807;-72
2021/08/03 13:46:01;;;;;;;3.03;2.10;;;;;;;;;;5073734;28;20763;-73
2021/08/03 13:48:27;;;;;;;5.20;4.80;;;;;;;;;;5073072;28;20410;-71
2021/08/03 13:50:53;;;;;;;19.33;16.10;;;;;;;;;;5073733;28;20410;-73
2021/08/03 13:53:19;;;;;;;13.03;11.70;;;;;;;;;;5073417;28;20543;-72
2021/08/03 13:55:45;;;;;;;3.17;2.87;;;;;;;;;;5073494;28;20776;-74
2021/08/03 13:58:11;;;;;;;2.33;1.83;;;;;;;;;;5072971;28;20899;-72
2021/08/03 14:00:37;;;;;;;2.23;1.70;;;;;;;;;;5073712;28;20456;-73
2021/08/03 14:03:03;;;;;;;3.27;1.70;;;;;;;;;;5078474;28;20512;-71
2021/08/03 14:05:29;;;;;;;2.40;1.83;;;;;;;;;;5093370;28;20491;-72
2021/08/03 14:07:55;;;;;;;2.30;1.63;;;;;;;;;;5093094;28;20417;-71
2021/08/03 14:10:21;;;;;;;2.60;1.70;;;;;;;;;;5093752;28;20440;-70
2021/08/03 14:12:47;;;;;;;2.00;1.40;;;;;;;;;;5093380;28;20560;-73
2021/08/03 14:15:13;;;;;;;2.30;1.50;;;;;;;;;;5093757;28;20406;-70
2021/08/03 14:17:39;;;;;;;2.00;1.50;;;;;;;;;;5093006;28;20770;-73
2021/08/03 14:20:05;;;;;;;3.27;1.43;;;;;;;;;;5093201;28;20489;-71
2021/08/03 14:22:31;;;;;;;2.70;1.70;;;;;;;;;;5073889;28;20476;-73
2021/08/03 14:24:57;;;;;;;2.20;1.63;;;;;;;;;;5073150;28;20418;-70
2021/08/03 14:27:23;;;;;;;2.90;1.70;;;;;;;;;;5072692;28;20410;-72
2021/08/03 14:29:49;;;;;;;2.10;1.50;;;;;;;;;;5073193;28;20767;-72
2021/08/03 14:32:15;;;;;;;2.00;1.53;;;;;;;;;;5071882;28;20466;-70
2021/08/03 14:34:41;;;;;;;2.20;1.50;;;;;;;;;;5072986;28;20434;-72
2021/08/03 14:37:07;;;;;;;2.00;1.50;;;;;;;;;;5078906;28;20417;-70
2021/08/03 14:39:34;;;;;;;2.30;1.70;;;;;;;;;;5080002;28;20402;-71
2021/08/03 14:42:00;;;;;;;2.20;1.50;;;;;;;;;;5079906;28;20426;-74
2021/08/03 14:44:26;;;;;;;2.40;1.60;;;;;;;;;;5079455;28;20441;-72
2021/08/03 14:46:52;;;;;;;2.93;1.80;;;;;;;;;;5079184;28;20414;-71
2021/08/03 14:49:18;;;;;;;2.00;1.33;;;;;;;;;;5080033;28;20428;-71
2021/08/03 14:51:44;;;;;;;2.60;1.80;;;;;;;;;;5079542;28;20462;-73